sensor_id;sensor_type;location;lat;lon;timestamp;P1;durP1;ratioP1;P2;durP2;ratioP2
8319;SDS011;4197;42.130;24.746;2024-03-25T00:01:40;15.63;;;9.30;;
8319;SDS011;4197;42.130;24.746;2024-03-25T00:04:08;12.03;;;9.73;;
8319;SDS011;4197;42.130;24.746;2024-03-25T00:06:34;12.30;;;9.23;;
8319;SDS011;4197;42.130;24.746;2024-03-25T00:09:02;12.17;;;9.07;;
8319;SDS011;4197;42.130;24.746;2024-03-25T00:11:29;12.90;;;8.77;;
8319;SDS011;4197;42.130;24.746;2024-03-25T00:13:56;13.07;;;8.40;;
8319;SDS011;4197;42.130;24.746;2024-03-25T00:16:22;11.37;;;9.63;;
8319;SDS011;4197;42.130;24.746;2024-03-25T00:18:50;12.07;;;9.17;;
8319;SDS011;4197;42.130;24.746;2024-03-25T00:21:17;11.77;;;9.17;;
8319;SDS011;4197;42.130;24.746;2024-03-25T00:23:45;11.40;;;9.00;;
8319;SDS011;4197;42.130;24.746;2024-03-25T00:26:11;12.53;;;10.20;;
8319;SDS011;4197;42.130;24.746;2024-03-25T00:28:38;14.17;;;9.00;;
8319;SDS011;4197;42.130;24.746;2024-03-25T00:31:04;12.87;;;9.27;;
8319;SDS011;4197;42.130;24.746;2024-03-25T00:33:32;10.33;;;8.60;;
8319;SDS011;4197;42.130;24.746;2024-03-25T00:35:58;14.57;;;9.63;;
8319;SDS011;4197;42.130;24.746;2024-03-25T00:38:27;11.70;;;9.03;;
8319;SDS011;4197;42.130;24.746;2024-03-25T00:40:53;11.90;;;8.73;;
8319;SDS011;4197;42.130;24.746;2024-03-25T00:43:20;13.07;;;9.17;;
8319;SDS011;4197;42.130;24.746;2024-03-25T00:45:46;10.50;;;8.83;;
8319;SDS011;4197;42.130;24.746;2024-03-25T00:48:13;11.50;;;9.30;;
8319;SDS011;4197;42.130;24.746;2024-03-25T00:50:39;12.30;;;9.57;;
8319;SDS011;4197;42.130;24.746;2024-03-25T00:53:07;12.37;;;9.40;;
8319;SDS011;4197;42.130;24.746;2024-03-25T00:55:34;13.23;;;9.70;;
8319;SDS011;4197;42.130;24.746;2024-03-25T00:58:02;16.13;;;10.13;;
8319;SDS011;4197;42.130;24.746;2024-03-25T01:00:29;12.97;;;9.37;;
8319;SDS011;4197;42.130;24.746;2024-03-25T01:02:56;10.60;;;9.03;;
8319;SDS011;4197;42.130;24.746;2024-03-25T01:05:23;12.27;;;8.97;;
8319;SDS011;4197;42.130;24.746;2024-03-25T01:07:50;15.03;;;10.80;;
8319;SDS011;4197;42.130;24.746;2024-03-25T01:10:16;12.60;;;9.57;;
8319;SDS011;4197;42.130;24.746;2024-03-25T01:12:45;16.30;;;9.80;;
8319;SDS011;4197;42.130;24.746;2024-03-25T01:15:11;10.70;;;8.60;;
8319;SDS011;4197;42.130;24.746;2024-03-25T01:17:39;15.23;;;10.60;;
8319;SDS011;4197;42.130;24.746;2024-03-25T01:20:05;22.77;;;12.67;;
8319;SDS011;4197;42.130;24.746;2024-03-25T01:22:36;26.83;;;15.30;;
8319;SDS011;4197;42.130;24.746;2024-03-25T01:25:02;26.63;;;14.50;;
8319;SDS011;4197;42.130;24.746;2024-03-25T01:27:30;17.87;;;12.97;;
8319;SDS011;4197;42.130;24.746;2024-03-25T01:29:58;34.30;;;14.57;;
8319;SDS011;4197;42.130;24.746;2024-03-25T01:32:25;18.67;;;10.70;;
8319;SDS011;4197;42.130;24.746;2024-03-25T01:34:52;11.03;;;7.67;;
8319;SDS011;4197;42.130;24.746;2024-03-25T01:37:19;17.13;;;6.47;;
8319;SDS011;4197;42.130;24.746;2024-03-25T01:39:45;8.07;;;3.13;;
8319;SDS011;4197;42.130;24.746;2024-03-25T01:42:13;6.03;;;1.60;;
8319;SDS011;4197;42.130;24.746;2024-03-25T01:44:39;11.03;;;1.93;;
8319;SDS011;4197;42.130;24.746;2024-03-25T01:47:08;2.40;;;1.37;;
8319;SDS011;4197;42.130;24.746;2024-03-25T01:49:34;1.50;;;0.90;;
8319;SDS011;4197;42.130;24.746;2024-03-25T01:52:03;2.17;;;1.20;;
8319;SDS011;4197;42.130;24.746;2024-03-25T01:54:29;2.03;;;1.00;;
8319;SDS011;4197;42.130;24.746;2024-03-25T01:56:56;6.47;;;1.37;;
8319;SDS011;4197;42.130;24.746;2024-03-25T01:59:24;3.90;;;1.00;;
8319;SDS011;4197;42.130;24.746;2024-03-25T02:01:52;2.20;;;0.90;;
8319;SDS011;4197;42.130;24.746;2024-03-25T02:04:21;2.33;;;1.60;;
8319;SDS011;4197;42.130;24.746;2024-03-25T02:06:49;0.73;;;0.73;;
8319;SDS011;4197;42.130;24.746;2024-03-25T02:09:16;2.30;;;0.97;;
8319;SDS011;4197;42.130;24.746;2024-03-25T02:11:44;1.13;;;0.80;;
8319;SDS011;4197;42.130;24.746;2024-03-25T02:14:11;1.83;;;0.87;;
8319;SDS011;4197;42.130;24.746;2024-03-25T02:16:38;1.93;;;1.17;;
8319;SDS011;4197;42.130;24.746;2024-03-25T02:19:04;1.87;;;1.10;;
8319;SDS011;4197;42.130;24.746;2024-03-25T02:21:33;1.70;;;0.90;;
8319;SDS011;4197;42.130;24.746;2024-03-25T02:23:59;2.33;;;0.90;;
8319;SDS011;4197;42.130;24.746;2024-03-25T02:26:33;1.50;;;1.20;;
8319;SDS011;4197;42.130;24.746;2024-03-25T02:28:59;1.40;;;1.00;;
8319;SDS011;4197;42.130;24.746;2024-03-25T02:31:27;3.97;;;2.87;;
8319;SDS011;4197;42.130;24.746;2024-03-25T02:33:53;4.33;;;3.07;;
8319;SDS011;4197;42.130;24.746;2024-03-25T02:36:20;2.57;;;1.80;;
8319;SDS011;4197;42.130;24.746;2024-03-25T02:38:46;3.30;;;2.50;;
8319;SDS011;4197;42.130;24.746;2024-03-25T02:41:14;2.60;;;2.00;;
8319;SDS011;4197;42.130;24.746;2024-03-25T02:43:41;1.50;;;1.37;;
8319;SDS011;4197;42.130;24.746;2024-03-25T02:46:09;1.10;;;1.00;;
8319;SDS011;4197;42.130;24.746;2024-03-25T02:48:35;1.60;;;1.50;;
8319;SDS011;4197;42.130;24.746;2024-03-25T02:51:03;1.20;;;1.10;;
8319;SDS011;4197;42.130;24.746;2024-03-25T02:53:29;1.80;;;1.07;;
8319;SDS011;4197;42.130;24.746;2024-03-25T02:55:56;1.30;;;1.20;;
8319;SDS011;4197;42.130;24.746;2024-03-25T02:58:23;0.80;;;0.80;;
8319;SDS011;4197;42.130;24.746;2024-03-25T03:00:51;1.30;;;1.20;;
8319;SDS011;4197;42.130;24.746;2024-03-25T03:03:17;1.07;;;1.00;;
8319;SDS011;4197;42.130;24.746;2024-03-25T03:05:45;1.07;;;0.97;;
8319;SDS011;4197;42.130;24.746;2024-03-25T03:08:11;1.60;;;1.40;;
8319;SDS011;4197;42.130;24.746;2024-03-25T03:10:38;2.70;;;1.07;;
8319;SDS011;4197;42.130;24.746;2024-03-25T03:13:04;0.97;;;0.90;;
8319;SDS011;4197;42.130;24.746;2024-03-25T03:15:31;1.40;;;1.30;;
8319;SDS011;4197;42.130;24.746;2024-03-25T03:17:59;1.00;;;0.90;;
8319;SDS011;4197;42.130;24.746;2024-03-25T03:20:26;2.13;;;1.93;;
8319;SDS011;4197;42.130;24.746;2024-03-25T03:22:52;0.97;;;0.93;;
8319;SDS011;4197;42.130;24.746;2024-03-25T03:25:20;1.33;;;1.10;;
8319;SDS011;4197;42.130;24.746;2024-03-25T03:27:46;1.00;;;1.00;;
8319;SDS011;4197;42.130;24.746;2024-03-25T03:30:13;1.20;;;1.10;;
8319;SDS011;4197;42.130;24.746;2024-03-25T03:32:39;1.60;;;1.10;;
8319;SDS011;4197;42.130;24.746;2024-03-25T03:35:08;1.63;;;1.10;;
8319;SDS011;4197;42.130;24.746;2024-03-25T03:37:34;0.90;;;0.90;;
8319;SDS011;4197;42.130;24.746;2024-03-25T03:40:03;1.53;;;1.43;;
8319;SDS011;4197;42.130;24.746;2024-03-25T03:42:31;2.53;;;1.50;;
8319;SDS011;4197;42.130;24.746;2024-03-25T03:44:58;1.17;;;0.90;;
8319;SDS011;4197;42.130;24.746;2024-03-25T03:47:24;1.93;;;1.60;;
8319;SDS011;4197;42.130;24.746;2024-03-25T03:49:52;1.47;;;1.30;;
8319;SDS011;4197;42.130;24.746;2024-03-25T03:52:19;1.83;;;1.60;;
8319;SDS011;4197;42.130;24.746;2024-03-25T03:54:47;1.10;;;1.00;;
8319;SDS011;4197;42.130;24.746;2024-03-25T03:57:13;1.93;;;1.73;;
8319;SDS011;4197;42.130;24.746;2024-03-25T03:59:40;1.60;;;1.50;;
8319;SDS011;4197;42.130;24.746;2024-03-25T04:02:07;2.90;;;2.13;;
8319;SDS011;4197;42.130;24.746;2024-03-25T04:04:34;5.93;;;3.50;;
8319;SDS011;4197;42.130;24.746;2024-03-25T04:07:01;2.67;;;1.97;;
8319;SDS011;4197;42.130;24.746;2024-03-25T04:09:30;4.03;;;2.37;;
8319;SDS011;4197;42.130;24.746;2024-03-25T04:11:56;2.57;;;1.47;;
8319;SDS011;4197;42.130;24.746;2024-03-25T04:14:23;3.40;;;2.27;;
8319;SDS011;4197;42.130;24.746;2024-03-25T04:16:49;2.43;;;2.23;;
8319;SDS011;4197;42.130;24.746;2024-03-25T04:19:18;1.53;;;1.27;;
8319;SDS011;4197;42.130;24.746;2024-03-25T04:21:44;1.83;;;1.47;;
8319;SDS011;4197;42.130;24.746;2024-03-25T04:24:12;1.83;;;1.20;;
8319;SDS011;4197;42.130;24.746;2024-03-25T04:26:39;2.03;;;1.83;;
8319;SDS011;4197;42.130;24.746;2024-03-25T04:29:07;1.60;;;1.40;;
8319;SDS011;4197;42.130;24.746;2024-03-25T04:31:33;1.70;;;1.60;;
8319;SDS011;4197;42.130;24.746;2024-03-25T04:34:02;1.63;;;1.20;;
8319;SDS011;4197;42.130;24.746;2024-03-25T04:36:28;1.60;;;1.50;;
8319;SDS011;4197;42.130;24.746;2024-03-25T04:38:55;2.17;;;1.60;;
8319;SDS011;4197;42.130;24.746;2024-03-25T04:41:22;1.20;;;1.10;;
8319;SDS011;4197;42.130;24.746;2024-03-25T04:43:49;1.27;;;1.17;;
8319;SDS011;4197;42.130;24.746;2024-03-25T04:46:15;1.20;;;1.10;;
8319;SDS011;4197;42.130;24.746;2024-03-25T04:48:42;1.40;;;1.30;;
8319;SDS011;4197;42.130;24.746;2024-03-25T04:51:08;1.20;;;1.10;;
8319;SDS011;4197;42.130;24.746;2024-03-25T04:53:34;0.90;;;0.87;;
8319;SDS011;4197;42.130;24.746;2024-03-25T04:56:01;1.10;;;1.00;;
8319;SDS011;4197;42.130;24.746;2024-03-25T04:58:27;2.33;;;1.20;;
8319;SDS011;4197;42.130;24.746;2024-03-25T05:00:55;5.00;;;1.80;;
8319;SDS011;4197;42.130;24.746;2024-03-25T05:03:21;1.67;;;1.57;;
8319;SDS011;4197;42.130;24.746;2024-03-25T05:05:47;9.30;;;1.63;;
8319;SDS011;4197;42.130;24.746;2024-03-25T05:08:14;2.37;;;1.80;;
8319;SDS011;4197;42.130;24.746;2024-03-25T05:10:40;1.70;;;1.60;;
8319;SDS011;4197;42.130;24.746;2024-03-25T05:13:06;1.90;;;1.40;;
8319;SDS011;4197;42.130;24.746;2024-03-25T05:15:32;1.40;;;1.30;;
8319;SDS011;4197;42.130;24.746;2024-03-25T05:18:00;1.37;;;1.27;;
8319;SDS011;4197;42.130;24.746;2024-03-25T05:20:26;1.20;;;1.10;;
8319;SDS011;4197;42.130;24.746;2024-03-25T05:22:52;3.03;;;1.50;;
8319;SDS011;4197;42.130;24.746;2024-03-25T05:25:18;1.10;;;1.00;;
8319;SDS011;4197;42.130;24.746;2024-03-25T05:27:45;2.70;;;1.20;;
8319;SDS011;4197;42.130;24.746;2024-03-25T05:30:11;2.77;;;1.70;;
8319;SDS011;4197;42.130;24.746;2024-03-25T05:32:37;1.30;;;1.20;;
8319;SDS011;4197;42.130;24.746;2024-03-25T05:35:05;1.23;;;1.13;;
8319;SDS011;4197;42.130;24.746;2024-03-25T05:37:32;1.93;;;1.30;;
8319;SDS011;4197;42.130;24.746;2024-03-25T05:39:58;4.13;;;1.70;;
8319;SDS011;4197;42.130;24.746;2024-03-25T05:42:24;1.30;;;1.20;;
8319;SDS011;4197;42.130;24.746;2024-03-25T05:44:51;1.60;;;1.50;;
8319;SDS011;4197;42.130;24.746;2024-03-25T05:47:17;3.10;;;1.53;;
8319;SDS011;4197;42.130;24.746;2024-03-25T05:49:46;2.10;;;1.50;;
8319;SDS011;4197;42.130;24.746;2024-03-25T05:52:13;2.17;;;1.47;;
8319;SDS011;4197;42.130;24.746;2024-03-25T05:54:40;1.53;;;1.43;;
8319;SDS011;4197;42.130;24.746;2024-03-25T05:57:06;2.53;;;2.00;;
8319;SDS011;4197;42.130;24.746;2024-03-25T05:59:32;2.47;;;1.83;;
8319;SDS011;4197;42.130;24.746;2024-03-25T06:01:58;5.00;;;1.90;;
8319;SDS011;4197;42.130;24.746;2024-03-25T06:04:24;3.27;;;1.90;;
8319;SDS011;4197;42.130;24.746;2024-03-25T06:06:50;2.40;;;2.20;;
8319;SDS011;4197;42.130;24.746;2024-03-25T06:09:18;6.27;;;2.40;;
8319;SDS011;4197;42.130;24.746;2024-03-25T06:11:44;3.77;;;1.80;;
8319;SDS011;4197;42.130;24.746;2024-03-25T06:14:10;2.93;;;2.30;;
8319;SDS011;4197;42.130;24.746;2024-03-25T06:16:36;8.87;;;2.03;;
8319;SDS011;4197;42.130;24.746;2024-03-25T06:19:03;4.57;;;2.23;;
8319;SDS011;4197;42.130;24.746;2024-03-25T06:21:29;4.40;;;2.50;;
8319;SDS011;4197;42.130;24.746;2024-03-25T06:23:55;6.30;;;2.57;;
8319;SDS011;4197;42.130;24.746;2024-03-25T06:26:23;3.90;;;2.40;;
8319;SDS011;4197;42.130;24.746;2024-03-25T06:28:49;4.20;;;2.87;;
8319;SDS011;4197;42.130;24.746;2024-03-25T06:31:15;5.40;;;3.07;;
8319;SDS011;4197;42.130;24.746;2024-03-25T06:34:00;3.73;;;3.00;;
8319;SDS011;4197;42.130;24.746;2024-03-25T06:36:42;5.27;;;2.90;;
8319;SDS011;4197;42.130;24.746;2024-03-25T06:39:09;7.30;;;2.70;;
8319;SDS011;4197;42.130;24.746;2024-03-25T06:41:37;5.10;;;2.80;;
8319;SDS011;4197;42.130;24.746;2024-03-25T06:44:03;3.40;;;2.80;;
8319;SDS011;4197;42.130;24.746;2024-03-25T06:46:29;4.17;;;3.10;;
8319;SDS011;4197;42.130;24.746;2024-03-25T06:48:55;9.23;;;3.40;;
8319;SDS011;4197;42.130;24.746;2024-03-25T06:51:22;7.50;;;2.93;;
8319;SDS011;4197;42.130;24.746;2024-03-25T06:53:48;4.00;;;3.20;;
8319;SDS011;4197;42.130;24.746;2024-03-25T06:56:14;5.47;;;3.33;;
8319;SDS011;4197;42.130;24.746;2024-03-25T06:58:42;6.27;;;3.67;;
8319;SDS011;4197;42.130;24.746;2024-03-25T07:01:08;24.23;;;3.60;;
8319;SDS011;4197;42.130;24.746;2024-03-25T07:03:35;5.00;;;2.97;;
8319;SDS011;4197;42.130;24.746;2024-03-25T07:06:02;8.40;;;3.77;;
8319;SDS011;4197;42.130;24.746;2024-03-25T07:08:28;7.37;;;4.23;;
8319;SDS011;4197;42.130;24.746;2024-03-25T07:10:55;7.20;;;5.87;;
8319;SDS011;4197;42.130;24.746;2024-03-25T07:13:21;6.97;;;5.00;;
8319;SDS011;4197;42.130;24.746;2024-03-25T07:15:48;6.40;;;3.93;;
8319;SDS011;4197;42.130;24.746;2024-03-25T07:18:15;6.90;;;5.07;;
8319;SDS011;4197;42.130;24.746;2024-03-25T07:20:42;7.73;;;3.80;;
8319;SDS011;4197;42.130;24.746;2024-03-25T07:23:09;4.80;;;3.90;;
8319;SDS011;4197;42.130;24.746;2024-03-25T07:25:36;11.03;;;4.17;;
8319;SDS011;4197;42.130;24.746;2024-03-25T07:28:02;6.77;;;3.97;;
8319;SDS011;4197;42.130;24.746;2024-03-25T07:30:29;4.93;;;3.97;;
8319;SDS011;4197;42.130;24.746;2024-03-25T07:32:57;5.53;;;3.40;;
8319;SDS011;4197;42.130;24.746;2024-03-25T07:35:24;7.83;;;3.13;;
8319;SDS011;4197;42.130;24.746;2024-03-25T07:37:50;7.17;;;3.93;;
8319;SDS011;4197;42.130;24.746;2024-03-25T07:40:17;10.97;;;3.90;;
8319;SDS011;4197;42.130;24.746;2024-03-25T07:42:43;5.33;;;3.73;;
8319;SDS011;4197;42.130;24.746;2024-03-25T07:45:09;5.17;;;4.00;;
8319;SDS011;4197;42.130;24.746;2024-03-25T07:47:35;6.93;;;3.50;;
8319;SDS011;4197;42.130;24.746;2024-03-25T07:50:03;4.83;;;3.43;;
8319;SDS011;4197;42.130;24.746;2024-03-25T07:52:30;5.97;;;3.47;;
8319;SDS011;4197;42.130;24.746;2024-03-25T07:54:56;5.03;;;3.20;;
8319;SDS011;4197;42.130;24.746;2024-03-25T07:57:23;6.57;;;3.43;;
8319;SDS011;4197;42.130;24.746;2024-03-25T07:59:49;9.43;;;3.30;;
8319;SDS011;4197;42.130;24.746;2024-03-25T08:02:15;5.43;;;2.83;;
8319;SDS011;4197;42.130;24.746;2024-03-25T08:04:42;5.87;;;2.83;;
8319;SDS011;4197;42.130;24.746;2024-03-25T08:07:09;3.37;;;2.63;;
8319;SDS011;4197;42.130;24.746;2024-03-25T08:09:35;3.47;;;2.73;;
8319;SDS011;4197;42.130;24.746;2024-03-25T08:12:02;7.47;;;3.60;;
8319;SDS011;4197;42.130;24.746;2024-03-25T08:14:28;7.33;;;2.80;;
8319;SDS011;4197;42.130;24.746;2024-03-25T08:16:54;7.47;;;3.30;;
8319;SDS011;4197;42.130;24.746;2024-03-25T08:19:20;6.00;;;3.10;;
8319;SDS011;4197;42.130;24.746;2024-03-25T08:21:47;8.83;;;3.20;;
8319;SDS011;4197;42.130;24.746;2024-03-25T08:24:15;4.00;;;3.30;;
8319;SDS011;4197;42.130;24.746;2024-03-25T08:26:41;20.27;;;3.23;;
8319;SDS011;4197;42.130;24.746;2024-03-25T08:29:07;5.37;;;2.93;;
8319;SDS011;4197;42.130;24.746;2024-03-25T08:31:33;5.40;;;2.70;;
8319;SDS011;4197;42.130;24.746;2024-03-25T08:34:00;4.80;;;2.90;;
8319;SDS011;4197;42.130;24.746;2024-03-25T08:36:26;7.13;;;3.23;;
8319;SDS011;4197;42.130;24.746;2024-03-25T08:38:52;5.20;;;2.87;;
8319;SDS011;4197;42.130;24.746;2024-03-25T08:41:20;3.30;;;2.93;;
8319;SDS011;4197;42.130;24.746;2024-03-25T08:43:46;7.60;;;2.80;;
8319;SDS011;4197;42.130;24.746;2024-03-25T08:46:12;4.67;;;2.77;;
8319;SDS011;4197;42.130;24.746;2024-03-25T08:48:38;3.00;;;2.40;;
8319;SDS011;4197;42.130;24.746;2024-03-25T08:51:04;3.53;;;2.37;;
8319;SDS011;4197;42.130;24.746;2024-03-25T08:53:30;10.73;;;2.77;;
8319;SDS011;4197;42.130;24.746;2024-03-25T08:55:57;7.30;;;2.63;;
8319;SDS011;4197;42.130;24.746;2024-03-25T08:58:24;4.00;;;2.70;;
8319;SDS011;4197;42.130;24.746;2024-03-25T09:00:51;3.17;;;2.50;;
8319;SDS011;4197;42.130;24.746;2024-03-25T09:03:17;3.53;;;2.57;;
8319;SDS011;4197;42.130;24.746;2024-03-25T09:05:43;3.30;;;2.27;;
8319;SDS011;4197;42.130;24.746;2024-03-25T09:08:09;2.83;;;2.57;;
8319;SDS011;4197;42.130;24.746;2024-03-25T09:10:35;3.43;;;2.40;;
8319;SDS011;4197;42.130;24.746;2024-03-25T09:13:20;4.13;;;2.70;;
8319;SDS011;4197;42.130;24.746;2024-03-25T09:15:48;5.03;;;2.70;;
8319;SDS011;4197;42.130;24.746;2024-03-25T09:18:14;7.90;;;2.13;;
8319;SDS011;4197;42.130;24.746;2024-03-25T09:20:40;6.03;;;2.67;;
8319;SDS011;4197;42.130;24.746;2024-03-25T09:23:06;3.57;;;2.57;;
8319;SDS011;4197;42.130;24.746;2024-03-25T09:25:33;4.50;;;2.40;;
8319;SDS011;4197;42.130;24.746;2024-03-25T09:27:59;6.67;;;2.60;;
8319;SDS011;4197;42.130;24.746;2024-03-25T09:30:25;4.93;;;2.20;;
8319;SDS011;4197;42.130;24.746;2024-03-25T09:32:53;3.60;;;2.43;;
8319;SDS011;4197;42.130;24.746;2024-03-25T09:35:19;5.23;;;2.40;;
8319;SDS011;4197;42.130;24.746;2024-03-25T09:37:45;3.97;;;2.53;;
8319;SDS011;4197;42.130;24.746;2024-03-25T09:40:12;3.83;;;2.50;;
8319;SDS011;4197;42.130;24.746;2024-03-25T09:42:41;6.57;;;2.70;;
8319;SDS011;4197;42.130;24.746;2024-03-25T09:45:12;2.53;;;2.10;;
8319;SDS011;4197;42.130;24.746;2024-03-25T09:47:41;5.17;;;2.73;;
8319;SDS011;4197;42.130;24.746;2024-03-25T09:50:12;2.37;;;2.17;;
8319;SDS011;4197;42.130;24.746;2024-03-25T09:52:39;3.27;;;2.03;;
8319;SDS011;4197;42.130;24.746;2024-03-25T09:55:05;5.83;;;2.20;;
8319;SDS011;4197;42.130;24.746;2024-03-25T09:57:33;9.07;;;2.40;;
8319;SDS011;4197;42.130;24.746;2024-03-25T09:59:59;6.17;;;2.67;;
8319;SDS011;4197;42.130;24.746;2024-03-25T10:02:26;3.70;;;2.70;;
8319;SDS011;4197;42.130;24.746;2024-03-25T10:04:55;3.83;;;2.40;;
8319;SDS011;4197;42.130;24.746;2024-03-25T10:07:23;2.63;;;2.07;;
8319;SDS011;4197;42.130;24.746;2024-03-25T10:09:49;3.47;;;1.80;;
8319;SDS011;4197;42.130;24.746;2024-03-25T10:12:16;3.93;;;1.93;;
8319;SDS011;4197;42.130;24.746;2024-03-25T10:14:42;3.20;;;2.20;;
8319;SDS011;4197;42.130;24.746;2024-03-25T10:17:09;6.47;;;2.13;;
8319;SDS011;4197;42.130;24.746;2024-03-25T10:19:35;3.77;;;1.90;;
8319;SDS011;4197;42.130;24.746;2024-03-25T10:22:05;2.33;;;2.00;;
8319;SDS011;4197;42.130;24.746;2024-03-25T10:24:40;2.73;;;2.20;;
8319;SDS011;4197;42.130;24.746;2024-03-25T10:27:10;3.50;;;2.13;;
8319;SDS011;4197;42.130;24.746;2024-03-25T10:29:42;4.33;;;2.13;;
8319;SDS011;4197;42.130;24.746;2024-03-25T10:32:08;2.80;;;2.33;;
8319;SDS011;4197;42.130;24.746;2024-03-25T10:34:35;7.30;;;2.30;;
8319;SDS011;4197;42.130;24.746;2024-03-25T10:37:01;3.40;;;2.07;;
8319;SDS011;4197;42.130;24.746;2024-03-25T10:39:31;3.27;;;2.00;;
8319;SDS011;4197;42.130;24.746;2024-03-25T10:41:59;5.20;;;2.10;;
8319;SDS011;4197;42.130;24.746;2024-03-25T10:44:28;2.97;;;1.90;;
8319;SDS011;4197;42.130;24.746;2024-03-25T10:46:56;2.17;;;1.93;;
8319;SDS011;4197;42.130;24.746;2024-03-25T10:49:27;2.43;;;2.10;;
8319;SDS011;4197;42.130;24.746;2024-03-25T10:52:00;2.00;;;1.80;;
8319;SDS011;4197;42.130;24.746;2024-03-25T10:54:27;3.50;;;2.30;;
8319;SDS011;4197;42.130;24.746;2024-03-25T10:56:56;3.57;;;2.00;;
8319;SDS011;4197;42.130;24.746;2024-03-25T10:59:26;3.23;;;2.07;;
8319;SDS011;4197;42.130;24.746;2024-03-25T11:01:52;2.97;;;2.07;;
8319;SDS011;4197;42.130;24.746;2024-03-25T11:04:19;4.67;;;1.90;;
8319;SDS011;4197;42.130;24.746;2024-03-25T11:06:46;5.07;;;2.00;;
8319;SDS011;4197;42.130;24.746;2024-03-25T11:09:21;2.50;;;1.73;;
8319;SDS011;4197;42.130;24.746;2024-03-25T11:11:50;2.60;;;1.90;;
8319;SDS011;4197;42.130;24.746;2024-03-25T11:14:16;4.70;;;2.03;;
8319;SDS011;4197;42.130;24.746;2024-03-25T11:16:43;3.07;;;2.03;;
8319;SDS011;4197;42.130;24.746;2024-03-25T11:19:17;2.87;;;1.70;;
8319;SDS011;4197;42.130;24.746;2024-03-25T11:21:44;2.80;;;1.90;;
8319;SDS011;4197;42.130;24.746;2024-03-25T11:24:10;3.50;;;2.17;;
8319;SDS011;4197;42.130;24.746;2024-03-25T11:26:40;4.47;;;2.60;;
8319;SDS011;4197;42.130;24.746;2024-03-25T11:29:07;2.40;;;1.90;;
8319;SDS011;4197;42.130;24.746;2024-03-25T11:31:34;3.97;;;2.07;;
8319;SDS011;4197;42.130;24.746;2024-03-25T11:34:05;3.07;;;2.13;;
8319;SDS011;4197;42.130;24.746;2024-03-25T11:36:31;3.63;;;2.10;;
8319;SDS011;4197;42.130;24.746;2024-03-25T11:38:58;2.73;;;2.03;;
8319;SDS011;4197;42.130;24.746;2024-03-25T11:41:25;3.13;;;1.80;;
8319;SDS011;4197;42.130;24.746;2024-03-25T11:43:51;2.33;;;1.60;;
8319;SDS011;4197;42.130;24.746;2024-03-25T11:46:18;4.83;;;2.43;;
8319;SDS011;4197;42.130;24.746;2024-03-25T11:48:44;4.03;;;2.20;;
8319;SDS011;4197;42.130;24.746;2024-03-25T11:51:13;6.03;;;2.10;;
8319;SDS011;4197;42.130;24.746;2024-03-25T11:53:42;3.97;;;2.07;;
8319;SDS011;4197;42.130;24.746;2024-03-25T11:56:08;3.03;;;2.17;;
8319;SDS011;4197;42.130;24.746;2024-03-25T11:58:34;2.70;;;2.43;;
8319;SDS011;4197;42.130;24.746;2024-03-25T12:01:01;4.13;;;2.70;;
8319;SDS011;4197;42.130;24.746;2024-03-25T12:03:27;5.50;;;2.40;;
8319;SDS011;4197;42.130;24.746;2024-03-25T12:05:54;3.17;;;2.40;;
8319;SDS011;4197;42.130;24.746;2024-03-25T12:08:22;3.67;;;2.60;;
8319;SDS011;4197;42.130;24.746;2024-03-25T12:10:49;3.50;;;2.60;;
8319;SDS011;4197;42.130;24.746;2024-03-25T12:13:34;6.37;;;2.40;;
8319;SDS011;4197;42.130;24.746;2024-03-25T12:16:00;7.13;;;2.30;;
8319;SDS011;4197;42.130;24.746;2024-03-25T12:18:27;3.40;;;1.60;;
8319;SDS011;4197;42.130;24.746;2024-03-25T12:20:56;3.73;;;1.60;;
8319;SDS011;4197;42.130;24.746;2024-03-25T12:23:27;1.80;;;1.40;;
8319;SDS011;4197;42.130;24.746;2024-03-25T12:25:55;3.57;;;1.47;;
8319;SDS011;4197;42.130;24.746;2024-03-25T12:28:21;2.20;;;1.67;;
8319;SDS011;4197;42.130;24.746;2024-03-25T12:30:51;2.63;;;1.60;;
8319;SDS011;4197;42.130;24.746;2024-03-25T12:33:18;1.40;;;1.30;;
8319;SDS011;4197;42.130;24.746;2024-03-25T12:35:45;2.87;;;1.70;;
8319;SDS011;4197;42.130;24.746;2024-03-25T12:38:26;3.90;;;2.33;;
8319;SDS011;4197;42.130;24.746;2024-03-25T12:40:53;3.10;;;1.73;;
8319;SDS011;4197;42.130;24.746;2024-03-25T12:43:30;3.93;;;2.10;;
8319;SDS011;4197;42.130;24.746;2024-03-25T12:45:57;5.07;;;2.30;;
8319;SDS011;4197;42.130;24.746;2024-03-25T12:48:24;4.20;;;2.10;;
8319;SDS011;4197;42.130;24.746;2024-03-25T12:50:50;3.50;;;2.20;;
8319;SDS011;4197;42.130;24.746;2024-03-25T12:53:16;4.47;;;2.10;;
8319;SDS011;4197;42.130;24.746;2024-03-25T12:55:45;3.47;;;1.80;;
8319;SDS011;4197;42.130;24.746;2024-03-25T12:58:12;2.20;;;1.57;;
8319;SDS011;4197;42.130;24.746;2024-03-25T13:00:38;2.97;;;1.10;;
8319;SDS011;4197;42.130;24.746;2024-03-25T13:03:05;3.97;;;1.80;;
8319;SDS011;4197;42.130;24.746;2024-03-25T13:05:31;3.17;;;1.70;;
8319;SDS011;4197;42.130;24.746;2024-03-25T13:07:57;1.90;;;1.40;;
8319;SDS011;4197;42.130;24.746;2024-03-25T13:10:24;2.87;;;1.50;;
8319;SDS011;4197;42.130;24.746;2024-03-25T13:12:52;3.97;;;1.73;;
8319;SDS011;4197;42.130;24.746;2024-03-25T13:15:18;5.83;;;1.90;;
8319;SDS011;4197;42.130;24.746;2024-03-25T13:17:44;4.50;;;1.53;;
8319;SDS011;4197;42.130;24.746;2024-03-25T13:20:11;5.13;;;2.20;;
8319;SDS011;4197;42.130;24.746;2024-03-25T13:22:37;1.83;;;1.50;;
8319;SDS011;4197;42.130;24.746;2024-03-25T13:25:03;4.67;;;1.63;;
8319;SDS011;4197;42.130;24.746;2024-03-25T13:27:30;5.03;;;1.60;;
8319;SDS011;4197;42.130;24.746;2024-03-25T13:29:57;3.90;;;2.43;;
8319;SDS011;4197;42.130;24.746;2024-03-25T13:32:25;2.07;;;1.60;;
8319;SDS011;4197;42.130;24.746;2024-03-25T13:34:51;3.53;;;2.33;;
8319;SDS011;4197;42.130;24.746;2024-03-25T13:37:17;2.57;;;1.67;;
8319;SDS011;4197;42.130;24.746;2024-03-25T13:39:43;3.77;;;2.00;;
8319;SDS011;4197;42.130;24.746;2024-03-25T13:42:10;7.33;;;2.30;;
8319;SDS011;4197;42.130;24.746;2024-03-25T13:44:36;5.07;;;2.30;;
8319;SDS011;4197;42.130;24.746;2024-03-25T13:47:04;4.13;;;2.53;;
8319;SDS011;4197;42.130;24.746;2024-03-25T13:49:30;9.97;;;3.73;;
8319;SDS011;4197;42.130;24.746;2024-03-25T13:51:59;5.90;;;4.70;;
8319;SDS011;4197;42.130;24.746;2024-03-25T13:54:26;4.00;;;3.30;;
8319;SDS011;4197;42.130;24.746;2024-03-25T13:56:52;4.80;;;3.40;;
8319;SDS011;4197;42.130;24.746;2024-03-25T13:59:18;6.97;;;3.43;;
8319;SDS011;4197;42.130;24.746;2024-03-25T14:01:45;4.70;;;2.70;;
8319;SDS011;4197;42.130;24.746;2024-03-25T14:04:12;2.67;;;2.47;;
8319;SDS011;4197;42.130;24.746;2024-03-25T14:06:39;7.03;;;4.33;;
8319;SDS011;4197;42.130;24.746;2024-03-25T14:09:05;7.73;;;3.40;;
8319;SDS011;4197;42.130;24.746;2024-03-25T14:11:32;4.30;;;1.50;;
8319;SDS011;4197;42.130;24.746;2024-03-25T14:13:58;3.87;;;1.77;;
8319;SDS011;4197;42.130;24.746;2024-03-25T14:16:24;1.43;;;1.33;;
8319;SDS011;4197;42.130;24.746;2024-03-25T14:18:50;1.77;;;1.40;;
8319;SDS011;4197;42.130;24.746;2024-03-25T14:21:18;4.27;;;1.77;;
8319;SDS011;4197;42.130;24.746;2024-03-25T14:23:44;3.40;;;1.80;;
8319;SDS011;4197;42.130;24.746;2024-03-25T14:26:11;4.13;;;2.07;;
8319;SDS011;4197;42.130;24.746;2024-03-25T14:28:40;4.07;;;1.90;;
8319;SDS011;4197;42.130;24.746;2024-03-25T14:31:06;11.90;;;5.13;;
8319;SDS011;4197;42.130;24.746;2024-03-25T14:33:33;3.70;;;2.30;;
8319;SDS011;4197;42.130;24.746;2024-03-25T14:35:59;16.23;;;4.10;;
8319;SDS011;4197;42.130;24.746;2024-03-25T14:38:27;4.00;;;3.00;;
8319;SDS011;4197;42.130;24.746;2024-03-25T14:40:53;13.10;;;2.90;;
8319;SDS011;4197;42.130;24.746;2024-03-25T14:43:19;5.30;;;2.87;;
8319;SDS011;4197;42.130;24.746;2024-03-25T14:45:45;3.30;;;2.67;;
8319;SDS011;4197;42.130;24.746;2024-03-25T14:48:11;3.63;;;2.57;;
8319;SDS011;4197;42.130;24.746;2024-03-25T14:50:38;4.23;;;2.73;;
8319;SDS011;4197;42.130;24.746;2024-03-25T14:53:04;4.90;;;2.80;;
8319;SDS011;4197;42.130;24.746;2024-03-25T14:55:32;4.60;;;2.97;;
8319;SDS011;4197;42.130;24.746;2024-03-25T14:57:59;3.00;;;2.23;;
8319;SDS011;4197;42.130;24.746;2024-03-25T15:00:26;4.60;;;2.20;;